createdAt,value
2023-12-09T00:00:26.250Z,2.10
2023-12-09T00:01:26.289Z,1.70
2023-12-09T00:02:26.633Z,1.97
2023-12-09T00:03:26.372Z,1.93
2023-12-09T00:04:26.534Z,2.12
2023-12-09T00:05:26.396Z,1.99
2023-12-09T00:06:26.459Z,1.80
2023-12-09T00:07:26.467Z,1.90
2023-12-09T00:08:26.505Z,2.29
2023-12-09T00:09:26.590Z,1.90
2023-12-09T00:10:26.576Z,1.93
2023-12-09T00:11:26.602Z,2.01
2023-12-09T00:12:27.033Z,2.07
2023-12-09T00:13:26.691Z,1.82
2023-12-09T00:14:26.743Z,1.72
2023-12-09T00:15:26.789Z,2.07
2023-12-09T00:16:26.773Z,2.36
2023-12-09T00:17:26.800Z,2.03
2023-12-09T00:18:26.919Z,1.98
2023-12-09T00:19:26.962Z,1.95
2023-12-09T00:20:26.924Z,1.99
2023-12-09T00:21:26.966Z,2.49
2023-12-09T00:22:27.264Z,2.35
2023-12-09T00:23:26.997Z,1.68
2023-12-09T00:24:27.054Z,2.06
2023-12-09T00:25:27.064Z,1.96
2023-12-09T00:26:27.097Z,2.13
2023-12-09T00:27:27.215Z,2.15
2023-12-09T00:28:27.175Z,2.25
2023-12-09T00:29:27.202Z,2.29
2023-12-09T00:30:27.270Z,1.77
2023-12-09T00:31:27.281Z,1.74
2023-12-09T00:32:27.634Z,2.09
2023-12-09T00:33:27.449Z,2.09
2023-12-09T00:34:27.457Z,2.17
2023-12-09T00:35:27.409Z,2.27
2023-12-09T00:36:27.458Z,1.88
2023-12-09T00:37:27.482Z,1.78
2023-12-09T00:38:27.588Z,1.83
2023-12-09T00:39:27.592Z,1.75
2023-12-09T00:40:27.563Z,1.92
2023-12-09T00:41:27.619Z,1.74
2023-12-09T00:42:27.964Z,1.88
2023-12-09T00:43:27.672Z,1.88
2023-12-09T00:44:27.715Z,2.08
2023-12-09T00:45:27.808Z,2.09
2023-12-09T00:46:27.811Z,1.92
2023-12-09T00:47:27.829Z,2.11
2023-12-09T00:48:28.005Z,2.29
2023-12-09T00:49:27.980Z,1.94
2023-12-09T00:50:27.922Z,2.17
2023-12-09T00:51:28.020Z,2.12
2023-12-09T00:52:28.208Z,2.08
2023-12-09T00:53:28.037Z,1.69
2023-12-09T00:54:28.115Z,2.32
2023-12-09T00:55:28.129Z,2.61
2023-12-09T00:56:34.306Z,2.28
2023-12-09T00:57:29.267Z,2.38
2023-12-09T00:58:28.179Z,2.18
2023-12-09T00:59:28.189Z,2.31
2023-12-09T01:00:28.203Z,1.84
2023-12-09T01:01:28.209Z,2.05
2023-12-09T01:02:28.605Z,1.94
2023-12-09T01:03:28.288Z,2.29
2023-12-09T01:04:28.285Z,2.22
2023-12-09T01:05:28.186Z,2.09
2023-12-09T01:06:28.241Z,1.97
2023-12-09T01:07:28.191Z,2.11
2023-12-09T01:08:28.184Z,2.21
2023-12-09T01:09:28.245Z,1.87
2023-12-09T01:10:28.201Z,2.16
2023-12-09T01:11:28.206Z,2.14
2023-12-09T01:12:28.494Z,1.52
2023-12-09T01:13:28.277Z,2.38
2023-12-09T01:14:28.322Z,2.00
2023-12-09T01:15:28.381Z,2.25
2023-12-09T01:16:28.393Z,2.58
2023-12-09T01:17:28.424Z,1.94
2023-12-09T01:18:28.510Z,1.99
2023-12-09T01:19:28.537Z,1.83
2023-12-09T01:20:28.552Z,1.99
2023-12-09T01:21:28.607Z,2.70
2023-12-09T01:22:28.975Z,2.00
2023-12-09T01:23:28.639Z,2.21
2023-12-09T01:24:28.742Z,2.22
2023-12-09T01:25:28.730Z,2.01
2023-12-09T01:26:28.779Z,2.05
2023-12-09T01:27:28.831Z,2.38
2023-12-09T01:28:28.842Z,2.19
2023-12-09T01:29:28.881Z,1.82
2023-12-09T01:30:29.030Z,2.16
2023-12-09T01:31:28.962Z,2.13
2023-12-09T01:32:29.202Z,2.19
2023-12-09T01:33:29.182Z,2.06
2023-12-09T01:34:29.130Z,2.11
2023-12-09T01:35:29.120Z,1.87
2023-12-09T01:36:29.204Z,2.09
2023-12-09T01:37:29.207Z,2.22
2023-12-09T01:38:29.252Z,2.38
2023-12-09T01:39:29.344Z,2.23
2023-12-09T01:40:29.328Z,1.85
2023-12-09T01:41:29.371Z,2.03
2023-12-09T01:42:29.817Z,2.55
2023-12-09T01:43:29.453Z,1.79
2023-12-09T01:44:29.500Z,1.88
2023-12-09T01:45:29.601Z,2.48
2023-12-09T01:46:29.565Z,1.84
2023-12-09T01:47:29.617Z,1.98
2023-12-09T01:48:29.824Z,1.98
2023-12-09T01:49:29.817Z,2.35
2023-12-09T01:50:29.841Z,1.92
2023-12-09T01:51:29.856Z,2.65
2023-12-09T01:52:29.857Z,2.27
2023-12-09T01:53:29.842Z,2.12
2023-12-09T01:54:29.920Z,2.57
2023-12-09T01:55:29.933Z,1.85
2023-12-09T01:56:29.970Z,2.09
2023-12-09T01:57:30.064Z,2.30
2023-12-09T01:58:30.047Z,2.12
2023-12-09T01:59:30.097Z,2.01
2023-12-09T02:00:30.200Z,2.14
2023-12-09T02:01:30.200Z,2.64
2023-12-09T02:02:30.524Z,1.99
2023-12-09T02:03:30.306Z,2.02
2023-12-09T02:04:30.286Z,2.15
2023-12-09T02:05:30.329Z,1.92
2023-12-09T02:06:30.380Z,2.18
2023-12-09T02:07:30.416Z,2.29
2023-12-09T02:08:30.446Z,2.44
2023-12-09T02:09:30.572Z,1.91
2023-12-09T02:10:30.529Z,2.14
2023-12-09T02:11:30.568Z,2.57
2023-12-09T02:12:30.773Z,2.11
2023-12-09T02:13:30.644Z,2.08
2023-12-09T02:14:30.776Z,2.11
2023-12-09T02:15:30.785Z,2.30
2023-12-09T02:16:30.767Z,1.96
2023-12-09T02:17:30.827Z,2.24
2023-12-09T02:18:30.950Z,2.12
2023-12-09T02:19:30.897Z,2.53
2023-12-09T02:20:30.928Z,1.82
2023-12-09T02:21:31.008Z,1.86
2023-12-09T02:22:31.009Z,2.33
2023-12-09T02:23:31.069Z,2.17
2023-12-09T02:24:31.141Z,2.05
2023-12-09T02:25:31.152Z,2.42
2023-12-09T02:26:31.200Z,1.94
2023-12-09T02:27:31.294Z,2.01
2023-12-09T02:28:31.265Z,2.02
2023-12-09T02:29:31.310Z,2.37
2023-12-09T02:30:31.399Z,1.85
2023-12-09T02:31:31.412Z,2.26
2023-12-09T02:32:31.484Z,2.08
2023-12-09T02:33:31.642Z,2.17
2023-12-09T02:34:31.743Z,1.79
2023-12-09T02:35:31.608Z,2.00
2023-12-09T02:36:31.712Z,2.60
2023-12-09T02:37:31.698Z,2.30
2023-12-09T02:38:31.750Z,2.08
2023-12-09T02:39:31.819Z,1.75
2023-12-09T02:40:31.845Z,2.32
2023-12-09T02:41:31.890Z,2.06
2023-12-09T02:42:31.971Z,2.49
2023-12-09T02:43:31.968Z,2.30
2023-12-09T02:44:32.013Z,2.28
2023-12-09T02:45:32.159Z,2.35
2023-12-09T02:46:32.101Z,2.38
2023-12-09T02:47:32.162Z,2.00
2023-12-09T02:48:32.289Z,2.34
2023-12-09T02:49:32.347Z,2.50
2023-12-09T02:50:32.275Z,1.86
2023-12-09T02:51:32.471Z,2.67
2023-12-09T02:52:33.032Z,1.88
2023-12-09T02:53:32.404Z,2.08
2023-12-09T02:54:32.525Z,2.25
2023-12-09T02:55:32.495Z,2.38
2023-12-09T02:56:32.539Z,2.08
2023-12-09T02:57:32.614Z,2.47
2023-12-09T02:58:32.668Z,2.20
2023-12-09T02:59:32.689Z,2.17
2023-12-09T03:00:32.764Z,2.35
2023-12-09T03:01:32.830Z,2.43
2023-12-09T03:02:32.836Z,2.44
2023-12-09T03:03:32.943Z,2.34
2023-12-09T03:04:32.938Z,2.25
2023-12-09T03:05:33.006Z,2.03
2023-12-09T03:06:33.098Z,2.46
2023-12-09T03:07:33.092Z,2.03
2023-12-09T03:08:33.152Z,2.16
2023-12-09T03:09:33.210Z,2.30
2023-12-09T03:10:33.244Z,1.97
2023-12-09T03:11:33.303Z,2.35
2023-12-09T03:12:33.420Z,1.96
2023-12-09T03:13:33.405Z,2.18
2023-12-09T03:14:33.479Z,2.74
2023-12-09T03:15:33.637Z,2.34
2023-12-09T03:16:33.528Z,2.06
2023-12-09T03:17:33.603Z,1.90
2023-12-09T03:18:33.738Z,2.39
2023-12-09T03:19:33.798Z,1.96
2023-12-09T03:20:33.714Z,2.31
2023-12-09T03:21:33.778Z,2.18
2023-12-09T03:22:33.804Z,2.27
2023-12-09T03:23:33.856Z,2.28
2023-12-09T03:24:33.969Z,2.07
2023-12-09T03:25:33.963Z,2.20
2023-12-09T03:26:34.000Z,1.77
2023-12-09T03:27:34.143Z,2.41
2023-12-09T03:28:34.103Z,2.61
2023-12-09T03:29:34.134Z,2.14
2023-12-09T03:30:34.243Z,2.30
2023-12-09T03:31:34.218Z,2.12
2023-12-09T03:32:34.300Z,2.22
2023-12-09T03:33:34.475Z,2.41
2023-12-09T03:34:34.434Z,2.15
2023-12-09T03:35:34.401Z,1.89
2023-12-09T03:36:34.534Z,2.21
2023-12-09T03:37:34.501Z,2.26
2023-12-09T03:38:34.539Z,1.93
2023-12-09T03:39:34.657Z,2.22
2023-12-09T03:40:34.649Z,2.18
2023-12-09T03:41:34.698Z,2.29
2023-12-09T03:42:34.775Z,2.66
2023-12-09T03:43:34.862Z,1.94
2023-12-09T03:44:34.839Z,2.50
2023-12-09T03:45:34.948Z,2.43
2023-12-09T03:46:34.943Z,1.84
2023-12-09T03:47:35.026Z,1.77
2023-12-09T03:48:35.174Z,1.94
2023-12-09T03:49:35.118Z,1.99
2023-12-09T03:50:35.135Z,2.16
2023-12-09T03:51:35.257Z,2.37
2023-12-09T03:52:35.243Z,2.22
2023-12-09T03:53:35.257Z,2.43
2023-12-09T03:54:35.318Z,2.08
2023-12-09T03:55:35.360Z,2.34
2023-12-09T03:56:35.414Z,2.39
2023-12-09T03:57:35.612Z,2.31
2023-12-09T03:58:35.500Z,2.29
2023-12-09T03:59:35.549Z,2.04
2023-12-09T04:00:35.654Z,2.36
2023-12-09T04:01:35.676Z,2.29
2023-12-09T04:02:35.686Z,2.54
2023-12-09T04:03:35.787Z,2.43
2023-12-09T04:04:35.802Z,2.03
2023-12-09T04:05:35.872Z,2.15
2023-12-09T04:06:35.936Z,2.32
2023-12-09T04:07:35.918Z,2.47
2023-12-09T04:08:35.961Z,2.11
2023-12-09T04:09:36.055Z,2.41
2023-12-09T04:10:36.034Z,2.27
2023-12-09T04:11:36.073Z,2.21
2023-12-09T04:12:36.150Z,2.21
2023-12-09T04:13:36.164Z,2.44
2023-12-09T04:14:36.210Z,2.18
2023-12-09T04:15:36.337Z,1.92
2023-12-09T04:16:43.604Z,2.44
2023-12-09T04:17:43.648Z,2.38
2023-12-09T04:18:43.683Z,1.94
2023-12-09T04:19:43.730Z,2.67
2023-12-09T04:20:43.628Z,2.31
2023-12-09T04:21:43.612Z,2.48
2023-12-09T04:22:43.614Z,2.26
2023-12-09T04:23:43.614Z,2.47
2023-12-09T04:24:43.613Z,2.09
2023-12-09T04:25:43.619Z,2.22
2023-12-09T04:26:43.618Z,1.74
2023-12-09T04:27:43.650Z,2.09
2023-12-09T04:28:43.611Z,2.29
2023-12-09T04:29:43.614Z,2.42
2023-12-09T04:30:43.621Z,2.27
2023-12-09T04:31:50.784Z,2.44
2023-12-09T04:32:50.811Z,1.84
2023-12-09T04:33:50.838Z,2.37
2023-12-09T04:34:50.819Z,2.78
2023-12-09T04:35:50.792Z,2.31
2023-12-09T04:36:50.777Z,2.09
2023-12-09T04:37:50.779Z,2.44
2023-12-09T04:38:50.778Z,2.81
2023-12-09T04:39:50.785Z,2.09
2023-12-09T04:40:50.796Z,2.22
2023-12-09T04:41:50.778Z,2.13
2023-12-09T04:42:50.782Z,2.35
2023-12-09T04:43:50.778Z,2.57
2023-12-09T04:44:50.797Z,2.58
2023-12-09T04:45:50.790Z,2.48
2023-12-09T04:46:50.793Z,2.04
2023-12-09T04:47:50.912Z,2.23
2023-12-09T04:48:50.915Z,2.58
2023-12-09T04:49:50.941Z,2.24
2023-12-09T04:50:50.794Z,2.04
2023-12-09T04:51:50.791Z,2.16
2023-12-09T04:52:50.796Z,2.28
2023-12-09T04:53:50.803Z,1.85
2023-12-09T04:54:50.809Z,2.21
2023-12-09T04:55:50.804Z,2.39
2023-12-09T04:56:50.807Z,2.14
2023-12-09T04:57:50.807Z,2.31
2023-12-09T04:58:50.832Z,2.93
2023-12-09T04:59:50.822Z,2.36
2023-12-09T05:00:50.837Z,2.15
2023-12-09T05:01:50.820Z,1.92
2023-12-09T05:02:50.824Z,2.34
2023-12-09T05:03:50.896Z,2.26
2023-12-09T05:04:50.824Z,2.13
2023-12-09T05:05:50.854Z,2.05
2023-12-09T05:06:50.888Z,2.35
2023-12-09T05:07:50.850Z,2.07
2023-12-09T05:08:50.838Z,2.41
2023-12-09T05:09:50.843Z,2.44
2023-12-09T05:10:50.841Z,2.33
2023-12-09T05:11:50.824Z,2.24
2023-12-09T05:12:50.838Z,2.44
2023-12-09T05:13:50.852Z,2.17
2023-12-09T05:14:50.830Z,2.17
2023-12-09T05:15:50.861Z,2.32
2023-12-09T05:16:50.884Z,2.17
2023-12-09T05:17:50.916Z,1.68
2023-12-09T05:18:51.037Z,2.04
2023-12-09T05:19:50.857Z,2.16
2023-12-09T05:20:50.837Z,2.28
2023-12-09T05:21:50.909Z,2.29
2023-12-09T05:22:50.848Z,2.33
2023-12-09T05:23:50.863Z,2.60
2023-12-09T05:24:50.929Z,2.57
2023-12-09T05:25:51.027Z,2.21
2023-12-09T05:26:51.007Z,1.97
2023-12-09T05:27:51.075Z,2.65
2023-12-09T05:28:51.130Z,2.61
2023-12-09T05:29:51.175Z,2.27
2023-12-09T05:30:51.238Z,2.55
2023-12-09T05:31:51.275Z,2.19
2023-12-09T05:32:51.407Z,2.29
2023-12-09T05:33:51.540Z,2.74
2023-12-09T05:34:51.454Z,2.58
2023-12-09T05:35:51.468Z,2.17
2023-12-09T05:36:51.526Z,2.09
2023-12-09T05:37:51.652Z,2.24
2023-12-09T05:38:51.638Z,2.38
2023-12-09T05:39:51.672Z,2.32
2023-12-09T05:40:51.750Z,2.44
2023-12-09T05:41:51.768Z,2.42
2023-12-09T05:42:51.862Z,2.45
2023-12-09T05:43:51.937Z,2.60
2023-12-09T05:44:51.945Z,2.16
2023-12-09T05:45:51.998Z,2.40
2023-12-09T05:46:52.912Z,2.07
2023-12-09T05:47:52.193Z,2.45
2023-12-09T05:48:52.419Z,2.19
2023-12-09T05:49:52.249Z,2.76
2023-12-09T05:50:52.265Z,2.43
2023-12-09T05:51:52.330Z,2.24
2023-12-09T05:52:52.403Z,2.35
2023-12-09T05:53:52.422Z,2.30
2023-12-09T05:54:52.468Z,2.20
2023-12-09T05:55:52.524Z,2.26
2023-12-09T05:56:52.583Z,2.30
2023-12-09T05:57:52.617Z,2.50
2023-12-09T05:58:52.676Z,2.11
2023-12-09T05:59:52.718Z,2.28
2023-12-09T06:00:52.983Z,2.30
2023-12-09T06:01:52.812Z,2.42
2023-12-09T06:02:52.874Z,1.73
2023-12-09T06:03:52.917Z,2.50
2023-12-09T06:04:52.988Z,2.16
2023-12-09T06:05:53.039Z,2.23
2023-12-09T06:06:53.112Z,2.45
2023-12-09T06:07:53.128Z,2.57
2023-12-09T06:08:53.272Z,2.28
2023-12-09T06:09:53.233Z,1.86
2023-12-09T06:10:53.294Z,2.26
2023-12-09T06:11:53.330Z,2.26
2023-12-09T06:12:53.386Z,2.34
2023-12-09T06:13:53.431Z,2.06
2023-12-09T06:14:53.513Z,2.39
2023-12-09T06:15:53.525Z,2.41
2023-12-09T06:16:53.574Z,2.34
2023-12-09T06:17:53.748Z,2.52
2023-12-09T06:18:53.708Z,2.35
2023-12-09T06:19:53.737Z,2.31
2023-12-09T06:20:53.831Z,2.09
2023-12-09T06:21:53.810Z,2.46
2023-12-09T06:22:53.874Z,2.50
2023-12-09T06:23:53.993Z,2.74
2023-12-09T06:24:53.962Z,2.41
2023-12-09T06:25:53.997Z,2.21
2023-12-09T06:26:54.080Z,2.01
2023-12-09T06:27:54.121Z,2.34
2023-12-09T06:28:54.152Z,2.11
2023-12-09T06:29:54.227Z,2.54
2023-12-09T06:30:56.301Z,2.14
2023-12-09T06:31:54.248Z,2.43
2023-12-09T06:32:54.419Z,2.34
2023-12-09T06:33:54.399Z,2.79
2023-12-09T06:34:54.256Z,2.26
2023-12-09T06:35:54.271Z,2.24
2023-12-09T06:36:54.259Z,2.48
2023-12-09T06:37:54.251Z,2.27
2023-12-09T06:38:54.319Z,2.58
2023-12-09T06:39:54.249Z,2.13
2023-12-09T06:40:54.248Z,2.74
2023-12-09T06:41:54.283Z,2.51
2023-12-09T06:42:54.264Z,2.42
2023-12-09T06:43:54.268Z,2.47
2023-12-09T06:44:54.278Z,2.20
2023-12-09T06:45:54.250Z,2.03
2023-12-09T06:46:54.262Z,2.52
2023-12-09T06:47:54.339Z,2.38
2023-12-09T06:48:54.415Z,2.43
2023-12-09T06:49:54.322Z,2.53
2023-12-09T06:50:54.276Z,2.27
2023-12-09T06:51:54.276Z,2.35
2023-12-09T06:52:54.260Z,3.39
2023-12-09T06:53:54.357Z,2.59
2023-12-09T06:54:54.267Z,2.65
2023-12-09T06:55:54.275Z,2.27
2023-12-09T06:56:54.378Z,2.52
2023-12-09T06:57:54.270Z,2.31
2023-12-09T06:58:54.266Z,2.81
2023-12-09T06:59:54.358Z,2.51
2023-12-09T07:00:54.368Z,2.43
2023-12-09T07:01:54.266Z,2.28
2023-12-09T07:02:59.378Z,2.88
2023-12-09T07:03:55.382Z,2.39
2023-12-09T07:04:54.299Z,2.73
2023-12-09T07:05:54.311Z,3.10
2023-12-09T07:06:54.325Z,2.84
2023-12-09T07:07:54.280Z,2.70
2023-12-09T07:08:54.412Z,2.87
2023-12-09T07:09:54.280Z,2.78
2023-12-09T07:10:54.289Z,2.46
2023-12-09T07:12:01.803Z,2.56
2023-12-09T07:12:55.316Z,3.25
2023-12-09T07:13:54.299Z,2.75
2023-12-09T07:14:54.561Z,2.82
2023-12-09T07:15:54.302Z,3.14
2023-12-09T07:16:54.350Z,2.59
2023-12-09T07:17:54.426Z,2.98
2023-12-09T07:18:54.372Z,2.91
2023-12-09T07:19:54.423Z,2.52
2023-12-09T07:20:54.426Z,2.90
2023-12-09T07:21:54.305Z,3.07
2023-12-09T07:22:54.301Z,2.88
2023-12-09T07:23:54.407Z,2.99
2023-12-09T07:24:54.402Z,3.10
2023-12-09T07:25:54.450Z,2.97
2023-12-09T07:26:54.615Z,2.65
2023-12-09T07:27:54.556Z,2.84
2023-12-09T07:28:54.591Z,2.90
2023-12-09T07:29:54.701Z,2.64
2023-12-09T07:30:55.377Z,2.78
2023-12-09T07:31:54.787Z,2.93
2023-12-09T07:32:54.931Z,2.92
2023-12-09T07:33:54.932Z,3.18
2023-12-09T07:34:57.307Z,2.67
2023-12-09T07:35:54.888Z,3.09
2023-12-09T07:36:54.879Z,2.99
2023-12-09T07:37:54.881Z,2.55
2023-12-09T07:38:54.873Z,2.50
2023-12-09T07:39:54.880Z,3.08
2023-12-09T07:40:54.876Z,2.97
2023-12-09T07:41:54.881Z,2.77
2023-12-09T07:42:54.874Z,2.92
2023-12-09T07:43:54.884Z,2.61
2023-12-09T07:44:54.938Z,2.94
2023-12-09T07:45:54.881Z,2.49
2023-12-09T07:46:54.905Z,2.49
2023-12-09T07:47:55.018Z,3.11
2023-12-09T07:48:54.976Z,3.31
2023-12-09T07:49:54.899Z,3.34
2023-12-09T07:50:55.081Z,3.10
2023-12-09T07:51:54.891Z,3.05
2023-12-09T07:52:54.910Z,3.07
2023-12-09T07:53:54.983Z,3.30
2023-12-09T07:54:54.899Z,3.00
2023-12-09T07:55:54.905Z,2.85
2023-12-09T07:56:55.020Z,2.91
2023-12-09T07:57:54.897Z,2.53
2023-12-09T07:58:54.912Z,2.69
2023-12-09T07:59:54.977Z,3.10
2023-12-09T08:00:55.051Z,2.86
2023-12-09T08:01:54.910Z,2.98
2023-12-09T08:02:54.977Z,2.65
2023-12-09T08:03:54.989Z,2.93
2023-12-09T08:04:54.935Z,2.82
2023-12-09T08:05:55.018Z,2.81
2023-12-09T08:06:54.914Z,2.78
2023-12-09T08:07:54.915Z,3.00
2023-12-09T08:08:54.935Z,3.23
2023-12-09T08:09:54.927Z,2.82
2023-12-09T08:10:54.915Z,2.83
2023-12-09T08:11:54.914Z,2.72
2023-12-09T08:12:54.913Z,3.01
2023-12-09T08:13:54.922Z,2.75
2023-12-09T08:14:54.948Z,3.29
2023-12-09T08:15:54.935Z,3.32
2023-12-09T08:16:54.922Z,3.11
2023-12-09T08:17:54.930Z,3.22
2023-12-09T08:18:55.072Z,3.03
2023-12-09T08:19:54.976Z,3.05
2023-12-09T08:20:54.926Z,2.78
2023-12-09T08:21:54.928Z,2.90
2023-12-09T08:22:54.934Z,2.91
2023-12-09T08:23:54.950Z,3.37
2023-12-09T08:24:54.937Z,2.80
2023-12-09T08:25:54.941Z,3.14
2023-12-09T08:26:55.542Z,3.53
2023-12-09T08:27:54.938Z,3.19
2023-12-09T08:28:55.478Z,3.15
2023-12-09T08:29:54.955Z,3.75
2023-12-09T08:30:54.958Z,3.36
2023-12-09T08:31:54.995Z,3.07
2023-12-09T08:32:55.067Z,3.41
2023-12-09T08:33:55.187Z,3.35
2023-12-09T08:35:03.149Z,3.24
2023-12-09T08:35:56.200Z,2.99
2023-12-09T08:36:55.125Z,3.14
2023-12-09T08:37:55.135Z,2.99
2023-12-09T08:38:55.135Z,2.91
2023-12-09T08:39:55.135Z,3.34
2023-12-09T08:40:55.130Z,3.57
2023-12-09T08:41:55.130Z,3.03
2023-12-09T08:42:55.142Z,3.14
2023-12-09T08:43:55.145Z,3.10
2023-12-09T08:44:55.139Z,2.97
2023-12-09T08:45:55.146Z,3.23
2023-12-09T08:46:55.153Z,2.94
2023-12-09T08:47:55.190Z,3.15
2023-12-09T08:48:55.316Z,3.07
2023-12-09T08:49:55.178Z,3.53
2023-12-09T08:50:55.141Z,3.12
2023-12-09T08:51:55.151Z,3.51
2023-12-09T08:52:55.473Z,3.34
2023-12-09T08:53:55.208Z,3.43
2023-12-09T08:54:59.848Z,3.48
2023-12-09T08:55:56.240Z,2.74
2023-12-09T08:56:55.301Z,3.07
2023-12-09T08:57:55.297Z,2.71
2023-12-09T08:58:55.252Z,3.24
2023-12-09T08:59:55.247Z,3.14
2023-12-09T09:00:55.462Z,3.35
2023-12-09T09:01:55.251Z,3.36
2023-12-09T09:02:55.253Z,3.04
2023-12-09T09:03:55.350Z,3.34
2023-12-09T09:04:55.311Z,3.07
2023-12-09T09:05:55.301Z,3.20
2023-12-09T09:06:55.274Z,3.16
2023-12-09T09:07:55.266Z,3.59
2023-12-09T09:08:55.265Z,3.18
2023-12-09T09:09:55.272Z,3.27
2023-12-09T09:10:55.270Z,3.53
2023-12-09T09:11:55.286Z,2.73
2023-12-09T09:12:55.399Z,3.39
2023-12-09T09:13:55.347Z,3.26
2023-12-09T09:14:55.399Z,3.06
2023-12-09T09:15:55.516Z,3.11
2023-12-09T09:16:55.449Z,2.88
2023-12-09T09:17:55.502Z,3.14
2023-12-09T09:18:55.612Z,2.97
2023-12-09T09:19:55.570Z,2.91
2023-12-09T09:20:55.601Z,3.25
2023-12-09T09:21:55.584Z,3.13
2023-12-09T09:22:55.598Z,3.06
2023-12-09T09:23:55.629Z,3.33
2023-12-09T09:24:55.650Z,2.88
2023-12-09T09:25:55.685Z,2.64
2023-12-09T09:26:55.690Z,3.16
2023-12-09T09:27:55.735Z,3.51
2023-12-09T09:28:55.732Z,3.22
2023-12-09T09:29:55.745Z,3.18
2023-12-09T09:30:55.804Z,4.29
2023-12-09T09:31:55.855Z,4.16
2023-12-09T09:32:55.989Z,3.50
2023-12-09T09:33:56.066Z,3.97
2023-12-09T09:34:56.090Z,3.44
2023-12-09T09:35:55.986Z,3.72
2023-12-09T09:36:55.986Z,3.56
2023-12-09T09:37:56.005Z,3.85
2023-12-09T09:38:56.040Z,3.65
2023-12-09T09:39:56.074Z,3.47
2023-12-09T09:40:56.122Z,3.94
2023-12-09T09:41:56.173Z,3.94
2023-12-09T09:42:56.225Z,3.47
2023-12-09T09:43:56.280Z,3.59
2023-12-09T09:44:56.428Z,3.90
2023-12-09T09:45:56.413Z,3.23
2023-12-09T09:46:56.433Z,3.45
2023-12-09T09:47:56.699Z,3.12
2023-12-09T09:48:56.713Z,3.18
2023-12-09T09:49:56.658Z,3.13
2023-12-09T09:50:56.670Z,3.14
2023-12-09T09:51:56.717Z,3.49
2023-12-09T09:52:56.782Z,3.24
2023-12-09T09:53:56.854Z,3.50
2023-12-09T09:54:56.908Z,4.00
2023-12-09T09:55:56.965Z,3.91
2023-12-09T09:56:57.063Z,3.23
2023-12-09T09:57:57.087Z,3.33
2023-12-09T09:58:57.145Z,3.67
2023-12-09T09:59:57.191Z,3.51
2023-12-09T10:00:57.449Z,3.83
2023-12-09T10:01:57.297Z,3.76
2023-12-09T10:02:59.524Z,3.70
2023-12-09T10:03:57.451Z,3.74
2023-12-09T10:04:57.366Z,3.03
2023-12-09T10:05:57.406Z,3.96
2023-12-09T10:06:57.454Z,3.53
2023-12-09T10:07:57.360Z,3.90
2023-12-09T10:08:57.379Z,3.72
2023-12-09T10:09:57.373Z,3.28
2023-12-09T10:10:57.365Z,3.31
2023-12-09T10:11:57.380Z,2.95
2023-12-09T10:12:57.376Z,3.68
2023-12-09T10:13:57.379Z,3.70
2023-12-09T10:14:57.443Z,4.03
2023-12-09T10:15:57.501Z,3.48
2023-12-09T10:16:57.383Z,3.46
2023-12-09T10:17:57.644Z,3.58
2023-12-09T10:18:57.463Z,3.21
2023-12-09T10:19:57.473Z,3.83
2023-12-09T10:20:57.431Z,3.27
2023-12-09T10:21:57.383Z,3.43
2023-12-09T10:22:57.383Z,3.91
2023-12-09T10:23:57.509Z,4.21
2023-12-09T10:24:57.412Z,3.45
2023-12-09T10:25:57.382Z,3.24
2023-12-09T10:26:57.408Z,3.68
2023-12-09T10:27:57.394Z,3.75
2023-12-09T10:28:57.386Z,3.41
2023-12-09T10:29:57.435Z,3.40
2023-12-09T10:30:57.393Z,3.36
2023-12-09T10:31:57.403Z,3.67
2023-12-09T10:32:57.525Z,3.91
2023-12-09T10:33:57.476Z,3.46
2023-12-09T10:34:58.557Z,3.67
2023-12-09T10:35:57.424Z,3.79
2023-12-09T10:36:57.404Z,3.99
2023-12-09T10:37:57.400Z,3.54
2023-12-09T10:38:57.446Z,3.57
2023-12-09T10:39:57.415Z,3.44
2023-12-09T10:40:57.445Z,3.52
2023-12-09T10:41:57.571Z,3.73
2023-12-09T10:42:57.546Z,3.57
2023-12-09T10:43:57.649Z,3.72
2023-12-09T10:44:57.631Z,3.19
2023-12-09T10:45:57.668Z,4.35
2023-12-09T10:46:57.696Z,3.71
2023-12-09T10:47:57.855Z,3.45
2023-12-09T10:48:57.924Z,3.52
2023-12-09T10:49:57.823Z,3.54
2023-12-09T10:50:57.874Z,3.66
2023-12-09T10:51:57.858Z,3.51
2023-12-09T10:52:57.892Z,3.11
2023-12-09T10:53:57.993Z,3.42
2023-12-09T10:54:58.043Z,3.48
2023-12-09T10:55:58.100Z,3.74
2023-12-09T10:56:58.099Z,3.33
2023-12-09T10:57:58.129Z,3.66
2023-12-09T10:58:58.138Z,3.55
2023-12-09T10:59:58.180Z,3.78
2023-12-09T11:00:58.233Z,3.66
2023-12-09T11:01:58.193Z,4.24
2023-12-09T11:02:58.229Z,3.54
2023-12-09T11:03:58.234Z,3.71
2023-12-09T11:04:58.308Z,3.86
2023-12-09T11:05:58.303Z,3.77
2023-12-09T11:06:58.305Z,3.64
2023-12-09T11:07:58.349Z,3.19
2023-12-09T11:08:58.464Z,3.45
2023-12-09T11:09:58.433Z,3.52
2023-12-09T11:10:58.548Z,3.95
2023-12-09T11:11:58.587Z,3.96
2023-12-09T11:12:58.563Z,3.42
2023-12-09T11:13:58.573Z,3.87
2023-12-09T11:14:58.626Z,3.54
2023-12-09T11:15:58.636Z,3.56
2023-12-09T11:16:58.656Z,3.58
2023-12-09T11:18:01.079Z,3.81
2023-12-09T11:18:58.847Z,3.95
2023-12-09T11:19:58.865Z,3.86
2023-12-09T11:20:58.692Z,3.46
2023-12-09T11:21:58.654Z,3.51
2023-12-09T11:22:58.642Z,3.92
2023-12-09T11:23:58.706Z,3.95
2023-12-09T11:24:58.655Z,3.79
2023-12-09T11:25:58.670Z,3.80
2023-12-09T11:26:58.686Z,3.14
2023-12-09T11:27:58.660Z,3.93
2023-12-09T11:28:58.656Z,3.43
2023-12-09T11:30:00.155Z,3.92
2023-12-09T11:30:58.892Z,3.40
2023-12-09T11:31:58.898Z,3.75
2023-12-09T11:32:59.056Z,3.65
2023-12-09T11:33:59.039Z,3.79
2023-12-09T11:34:58.927Z,3.36
2023-12-09T11:35:58.981Z,3.93
2023-12-09T11:36:58.949Z,4.03
2023-12-09T11:37:58.954Z,3.88
2023-12-09T11:38:59.000Z,3.51
2023-12-09T11:39:58.992Z,3.53
2023-12-09T11:40:58.986Z,3.78
2023-12-09T11:41:59.034Z,3.27
2023-12-09T11:42:59.060Z,4.15
2023-12-09T11:43:59.062Z,3.57
2023-12-09T11:44:59.089Z,3.60
2023-12-09T11:45:59.123Z,3.88
2023-12-09T11:46:59.136Z,4.10
2023-12-09T11:47:59.267Z,3.62
2023-12-09T11:48:59.266Z,3.21
2023-12-09T11:49:59.204Z,3.75
2023-12-09T11:50:59.309Z,3.45
2023-12-09T11:51:59.223Z,3.16
2023-12-09T11:52:59.288Z,3.65
2023-12-09T11:53:59.270Z,4.30
2023-12-09T11:54:59.265Z,4.04
2023-12-09T11:55:59.285Z,3.73
2023-12-09T11:56:59.342Z,3.63
2023-12-09T11:57:59.287Z,3.19
2023-12-09T11:58:59.302Z,3.80
2023-12-09T11:59:59.318Z,3.31
2023-12-09T12:00:59.392Z,4.18
2023-12-09T12:01:59.329Z,4.24
2023-12-09T12:02:59.353Z,4.01
2023-12-09T12:03:59.427Z,3.88
2023-12-09T12:04:59.367Z,3.92
2023-12-09T12:05:59.444Z,3.36
2023-12-09T12:06:59.390Z,3.47
2023-12-09T12:07:59.387Z,3.50
2023-12-09T12:08:59.435Z,3.50
2023-12-09T12:09:59.402Z,3.50
2023-12-09T12:10:59.438Z,3.90
2023-12-09T12:11:59.503Z,3.47
2023-12-09T12:12:59.468Z,3.25
2023-12-09T12:13:59.481Z,3.76
2023-12-09T12:14:59.521Z,3.59
2023-12-09T12:15:59.524Z,3.36
2023-12-09T12:16:59.521Z,3.76
2023-12-09T12:17:59.643Z,3.46
2023-12-09T12:18:59.634Z,3.41
2023-12-09T12:19:59.557Z,3.78
2023-12-09T12:20:59.622Z,3.69
2023-12-09T12:21:59.586Z,3.46
2023-12-09T12:22:59.604Z,3.61
2023-12-09T12:23:59.644Z,4.09
2023-12-09T12:24:59.639Z,4.08
2023-12-09T12:25:59.660Z,3.86
2023-12-09T12:26:59.700Z,3.92
2023-12-09T12:27:59.691Z,3.68
2023-12-09T12:28:59.703Z,3.62
2023-12-09T12:29:59.733Z,4.03
2023-12-09T12:30:59.739Z,4.61
2023-12-09T12:31:59.805Z,4.35
2023-12-09T12:32:59.957Z,3.99
2023-12-09T12:33:59.877Z,4.09
2023-12-09T12:34:59.830Z,3.83
2023-12-09T12:35:59.953Z,4.06
2023-12-09T12:36:59.822Z,4.38
2023-12-09T12:37:59.839Z,3.81
2023-12-09T12:38:59.877Z,3.80
2023-12-09T12:39:59.874Z,3.60
2023-12-09T12:40:59.906Z,3.76
2023-12-09T12:41:59.973Z,3.83
2023-12-09T12:42:59.932Z,3.67
2023-12-09T12:43:59.958Z,3.77
2023-12-09T12:45:00.072Z,3.54
2023-12-09T12:46:00.120Z,3.91
2023-12-09T12:47:00.012Z,3.75
2023-12-09T12:48:00.324Z,3.62
2023-12-09T12:49:00.182Z,3.23
2023-12-09T12:50:00.261Z,3.91
2023-12-09T12:51:00.166Z,3.66
2023-12-09T12:52:00.180Z,3.68
2023-12-09T12:53:00.198Z,3.66
2023-12-09T12:54:00.227Z,3.72
2023-12-09T12:55:00.280Z,3.35
2023-12-09T12:56:00.238Z,4.08
2023-12-09T12:57:00.283Z,4.12
2023-12-09T12:58:00.305Z,3.47
2023-12-09T12:59:00.308Z,3.62
2023-12-09T13:00:07.374Z,4.04
2023-12-09T13:01:01.436Z,3.41
2023-12-09T13:02:00.344Z,4.01
2023-12-09T13:03:00.386Z,3.80
2023-12-09T13:04:00.524Z,3.70
2023-12-09T13:05:00.333Z,3.97
2023-12-09T13:06:00.464Z,3.67
2023-12-09T13:07:00.378Z,3.80
2023-12-09T13:08:00.346Z,4.21
2023-12-09T13:09:00.357Z,4.01
2023-12-09T13:10:00.344Z,3.64
2023-12-09T13:11:01.084Z,3.90
2023-12-09T13:12:00.445Z,3.92
2023-12-09T13:13:00.432Z,3.43
2023-12-09T13:14:00.348Z,3.81
2023-12-09T13:15:00.544Z,3.61
2023-12-09T13:16:00.350Z,4.24
2023-12-09T13:17:00.350Z,4.04
2023-12-09T13:18:00.530Z,4.09
2023-12-09T13:19:00.462Z,4.24